Time;durP1;ratioP1;P1;durP2;ratioP2;P2;SDS_P1;SDS_P2;PMS_P1;PMS_P2;Temp;Humidity;BMP_temperature;BMP_pressure;BME280_temperature;BME280_humidity;BME280_pressure;Samples;Min_cycle;Max_cycle;Signal;HPM_P1;HPM_P2
2023/01/26 00:00:54;;;;;;;10.97;9.00;;;5.10;87.70;;;;;;971214;145;27342;-79
2023/01/26 00:03:20;;;;;;;11.80;9.63;;;5.00;87.70;;;;;;972403;145;27285;-79
2023/01/26 00:05:47;;;;;;;11.00;9.63;;;5.10;87.80;;;;;;970251;147;27312;-79
2023/01/26 00:08:13;;;;;;;12.13;9.20;;;5.10;87.80;;;;;;971479;145;27435;-79
2023/01/26 00:10:40;;;;;;;10.57;9.30;;;5.00;87.80;;;;;;970832;147;27278;-79
2023/01/26 00:13:06;;;;;;;11.93;9.67;;;5.10;88.00;;;;;;970427;147;27284;-79
2023/01/26 00:15:33;;;;;;;12.47;9.63;;;5.10;88.10;;;;;;970259;145;29159;-79
2023/01/26 00:18:00;;;;;;;13.07;9.63;;;5.10;88.10;;;;;;971164;147;27384;-78
2023/01/26 00:20:26;;;;;;;10.60;8.47;;;5.10;88.00;;;;;;970124;147;27304;-79
2023/01/26 00:22:53;;;;;;;11.03;8.90;;;5.10;88.00;;;;;;971395;145;27411;-79
2023/01/26 00:25:19;;;;;;;11.80;9.13;;;5.10;88.10;;;;;;971100;145;27356;-79
2023/01/26 00:27:46;;;;;;;13.23;9.23;;;5.00;88.00;;;;;;969003;145;27391;-79
2023/01/26 00:30:13;;;;;;;11.33;9.07;;;5.00;88.00;;;;;;970434;147;27327;-79
2023/01/26 00:32:39;;;;;;;11.17;9.63;;;5.00;88.10;;;;;;971715;147;27205;-79
2023/01/26 00:35:06;;;;;;;11.33;9.23;;;5.00;88.10;;;;;;970651;145;27278;-78
2023/01/26 00:37:32;;;;;;;12.33;8.90;;;5.00;88.20;;;;;;971686;147;27305;-78
2023/01/26 00:39:59;;;;;;;11.33;8.73;;;5.00;88.30;;;;;;972277;147;27357;-78
2023/01/26 00:42:25;;;;;;;12.47;9.80;;;5.00;88.40;;;;;;972962;145;27233;-78
2023/01/26 00:44:52;;;;;;;10.57;9.47;;;5.00;88.50;;;;;;972931;147;27266;-78
2023/01/26 00:47:19;;;;;;;12.30;9.70;;;5.00;88.60;;;;;;973684;145;27335;-78
2023/01/26 00:49:45;;;;;;;13.13;10.23;;;5.00;88.50;;;;;;961796;147;27363;-79
2023/01/26 00:52:12;;;;;;;14.97;10.03;;;5.00;88.50;;;;;;961054;148;27383;-79
2023/01/26 00:54:38;;;;;;;12.63;10.37;;;5.00;88.30;;;;;;961364;148;27288;-79
2023/01/26 00:57:05;;;;;;;13.20;9.93;;;5.00;88.40;;;;;;960864;148;27254;-79
2023/01/26 00:59:32;;;;;;;14.83;10.90;;;5.00;88.20;;;;;;961280;146;27802;-79
2023/01/26 01:02:00;;;;;;;13.10;10.70;;;5.00;88.30;;;;;;961463;148;27311;-79
2023/01/26 01:04:25;;;;;;;13.20;10.77;;;5.00;88.30;;;;;;959551;148;27295;-79
2023/01/26 01:06:51;;;;;;;12.90;9.70;;;4.90;88.30;;;;;;961906;148;27208;-79
2023/01/26 01:09:18;;;;;;;12.13;9.53;;;4.90;88.40;;;;;;960071;148;27248;-79
2023/01/26 01:11:45;;;;;;;13.43;9.93;;;4.90;88.50;;;;;;962373;146;27406;-79
2023/01/26 01:14:14;;;;;;;13.17;9.87;;;4.90;88.60;;;;;;960822;148;27392;-79
2023/01/26 01:16:40;;;;;;;15.23;10.23;;;4.90;88.70;;;;;;959015;146;27788;-79
2023/01/26 01:19:07;;;;;;;11.20;9.27;;;4.90;88.80;;;;;;960346;146;27272;-79
2023/01/26 01:21:35;;;;;;;13.43;10.33;;;4.90;88.80;;;;;;960883;148;27391;-79
2023/01/26 01:24:00;;;;;;;11.90;10.17;;;4.90;88.80;;;;;;960654;148;27420;-78
2023/01/26 01:26:27;;;;;;;12.40;10.07;;;4.90;88.80;;;;;;960422;146;27275;-79
2023/01/26 01:28:54;;;;;;;11.43;9.27;;;4.90;88.80;;;;;;959897;147;27360;-79
2023/01/26 01:31:20;;;;;;;11.67;9.27;;;4.80;88.60;;;;;;961375;148;27291;-79
2023/01/26 01:33:46;;;;;;;14.00;10.13;;;4.80;88.70;;;;;;961329;148;27323;-79
2023/01/26 01:36:13;;;;;;;13.60;9.43;;;4.80;88.80;;;;;;961045;148;27250;-79
2023/01/26 01:38:39;;;;;;;12.30;10.77;;;4.80;88.80;;;;;;959551;146;27295;-79
2023/01/26 01:41:06;;;;;;;11.70;10.07;;;4.80;88.90;;;;;;961447;146;27360;-79
2023/01/26 01:43:33;;;;;;;12.70;10.33;;;4.80;88.70;;;;;;960688;146;27291;-79
2023/01/26 01:46:11;;;;;;;12.83;10.43;;;4.80;88.60;;;;;;960395;146;27396;-79
2023/01/26 01:48:46;;;;;;;13.97;11.07;;;4.80;88.60;;;;;;960089;147;27342;-79
2023/01/26 01:51:13;;;;;;;11.90;9.73;;;4.80;88.70;;;;;;958477;148;27355;-79
2023/01/26 01:53:39;;;;;;;13.00;10.03;;;4.70;88.70;;;;;;959414;148;27323;-79
2023/01/26 01:56:09;;;;;;;14.43;10.70;;;4.70;88.80;;;;;;960191;148;27308;-79
2023/01/26 01:58:35;;;;;;;12.43;10.37;;;4.70;88.70;;;;;;959990;148;27298;-79
2023/01/26 02:01:02;;;;;;;11.97;9.30;;;4.70;88.60;;;;;;961020;148;27283;-79
2023/01/26 02:03:28;;;;;;;11.27;9.87;;;4.60;88.40;;;;;;961635;148;27315;-79
2023/01/26 02:06:00;;;;;;;12.57;9.33;;;4.60;88.50;;;;;;961284;148;27209;-79
2023/01/26 02:08:36;;;;;;;13.70;10.60;;;4.60;88.80;;;;;;959221;148;27209;-78
2023/01/26 02:11:09;;;;;;;13.33;9.83;;;4.50;88.90;;;;;;959215;148;27391;-79
2023/01/26 02:13:35;;;;;;;12.70;10.27;;;4.50;89.00;;;;;;959991;148;27340;-79
2023/01/26 02:16:02;;;;;;;10.50;8.67;;;4.50;89.10;;;;;;960687;148;27256;-79
2023/01/26 02:18:28;;;;;;;11.87;9.27;;;4.40;89.20;;;;;;959696;148;27848;-79
2023/01/26 02:20:55;;;;;;;11.23;9.27;;;4.40;89.40;;;;;;960740;148;27232;-79
2023/01/26 02:23:45;;;;;;;12.43;9.27;;;4.40;89.50;;;;;;960731;148;27423;-79
2023/01/26 02:26:12;;;;;;;10.70;8.87;;;4.40;89.40;;;;;;941126;146;27330;-79
2023/01/26 02:28:38;;;;;;;12.73;9.70;;;4.40;89.30;;;;;;960847;148;27425;-79
2023/01/26 02:31:05;;;;;;;14.63;9.87;;;4.40;89.50;;;;;;959917;148;27369;-78
2023/01/26 02:33:32;;;;;;;12.57;9.87;;;4.30;89.60;;;;;;960578;148;27391;-78
2023/01/26 02:35:58;;;;;;;13.10;10.17;;;4.30;89.80;;;;;;961579;146;27392;-78
2023/01/26 02:38:25;;;;;;;13.83;10.60;;;4.30;89.80;;;;;;960284;148;27266;-79
2023/01/26 02:40:54;;;;;;;14.57;10.33;;;4.30;89.80;;;;;;959320;148;27388;-79
2023/01/26 02:43:21;;;;;;;12.67;10.27;;;4.30;90.00;;;;;;960438;148;27356;-79
2023/01/26 02:45:48;;;;;;;12.30;10.13;;;4.30;90.00;;;;;;960016;148;27303;-79
2023/01/26 02:49:45;;;;;;;12.60;10.43;;;4.30;90.00;;;;;;960642;148;27263;-79
2023/01/26 02:50:41;;;;;;;13.27;10.73;;;4.30;90.20;;;;;;965026;147;27382;-79
2023/01/26 02:53:07;;;;;;;12.80;9.73;;;4.30;90.10;;;;;;971350;145;27262;-79
2023/01/26 02:55:34;;;;;;;12.40;9.80;;;4.30;90.10;;;;;;971168;145;27314;-79
2023/01/26 02:58:00;;;;;;;13.47;9.70;;;4.20;90.00;;;;;;970618;147;27805;-79
2023/01/26 03:00:36;;;;;;;10.80;8.37;;;4.20;90.00;;;;;;970565;147;27357;-79
2023/01/26 03:03:02;;;;;;;12.70;8.70;;;4.20;90.00;;;;;;970639;147;27226;-79
2023/01/26 03:05:29;;;;;;;11.70;8.67;;;4.20;90.00;;;;;;969334;147;27422;-79
2023/01/26 03:07:56;;;;;;;12.77;9.27;;;4.10;90.10;;;;;;969965;147;27297;-79
2023/01/26 03:10:24;;;;;;;11.87;8.33;;;4.10;90.20;;;;;;971592;147;27246;-79
2023/01/26 03:12:49;;;;;;;11.30;8.70;;;4.10;90.40;;;;;;971110;145;27287;-79
2023/01/26 03:27:25;;;;;;;12.33;8.30;;;4.10;90.40;;;;;;971421;147;27376;-79
2023/01/26 03:28:41;;;;;;;9.00;7.00;;;4.00;90.90;;;;;;970607;147;27254;-78
2023/01/26 03:31:07;;;;;;;10.97;7.57;;;4.00;90.60;;;;;;971328;147;27313;-78
2023/01/26 03:33:34;;;;;;;8.73;7.07;;;4.00;90.60;;;;;;971494;147;27351;-77
2023/01/26 03:36:00;;;;;;;8.33;6.47;;;4.00;90.60;;;;;;970800;147;27367;-77
2023/01/26 03:38:27;;;;;;;8.90;7.50;;;4.00;90.60;;;;;;971020;145;27250;-77
2023/01/26 03:57:21;;;;;;;7.67;6.37;;;3.80;90.30;;;;;;969901;147;27266;-79
2023/01/26 03:59:48;;;;;;;7.60;5.70;;;3.80;90.50;;;;;;970920;145;27203;-79
2023/01/26 04:10:28;;;;;;;7.13;5.77;;;3.70;90.60;;;;;;971692;147;27440;-80
2023/01/26 04:21:28;;;;;;;6.60;5.60;;;3.60;90.70;;;;;;971425;147;27407;-80
2023/01/26 04:23:56;;;;;;;6.77;6.00;;;3.60;90.80;;;;;;971759;147;27302;-80
2023/01/26 04:26:23;;;;;;;8.53;5.87;;;3.60;90.90;;;;;;970614;147;27400;-79
2023/01/26 04:28:49;;;;;;;9.80;6.73;;;3.60;91.10;;;;;;971230;147;27883;-80
2023/01/26 04:31:16;;;;;;;10.33;6.00;;;3.60;91.10;;;;;;970576;147;27305;-79
2023/01/26 04:33:43;;;;;;;6.87;5.97;;;3.60;91.10;;;;;;969680;147;27278;-79
2023/01/26 04:36:09;;;;;;;7.27;5.53;;;3.60;91.20;;;;;;969978;145;27276;-79
2023/01/26 04:38:36;;;;;;;8.67;6.40;;;3.60;91.10;;;;;;971209;145;27328;-79
2023/01/26 04:41:02;;;;;;;7.67;5.47;;;3.60;91.00;;;;;;970823;145;27302;-80
2023/01/26 04:43:29;;;;;;;6.87;5.73;;;3.70;91.00;;;;;;970031;147;27301;-80
2023/01/26 04:45:59;;;;;;;6.20;5.47;;;3.60;91.00;;;;;;971284;146;27265;-79
2023/01/26 04:48:25;;;;;;;8.80;5.90;;;3.60;91.00;;;;;;970066;147;27334;-80
2023/01/26 04:50:55;;;;;;;9.37;6.03;;;3.60;91.00;;;;;;968088;147;27392;-79
2023/01/26 04:53:21;;;;;;;7.20;6.10;;;3.60;91.10;;;;;;961674;146;27423;-80
2023/01/26 04:55:48;;;;;;;7.33;5.50;;;3.60;91.10;;;;;;962419;148;27376;-79
2023/01/26 04:58:15;;;;;;;7.67;5.80;;;3.60;91.20;;;;;;961201;146;27258;-80
2023/01/26 05:00:41;;;;;;;7.57;6.53;;;3.60;91.30;;;;;;961808;148;27276;-79
2023/01/26 05:03:08;;;;;;;9.77;6.80;;;3.60;91.50;;;;;;960559;148;27326;-79
2023/01/26 05:05:37;;;;;;;8.77;6.43;;;3.60;91.60;;;;;;960639;148;27294;-79
2023/01/26 05:08:04;;;;;;;7.67;6.17;;;3.70;91.80;;;;;;960862;148;27282;-79
2023/01/26 05:10:30;;;;;;;8.13;6.70;;;3.70;91.80;;;;;;961108;148;27299;-79
2023/01/26 05:12:57;;;;;;;8.77;6.73;;;3.70;91.70;;;;;;960188;148;27301;-79
2023/01/26 05:15:23;;;;;;;7.63;6.20;;;3.70;91.50;;;;;;961872;148;27490;-80
2023/01/26 05:17:50;;;;;;;9.33;6.87;;;3.70;91.30;;;;;;960730;148;27311;-79
2023/01/26 05:20:16;;;;;;;7.23;6.17;;;3.70;91.30;;;;;;959771;148;27423;-79
2023/01/26 05:22:43;;;;;;;8.03;6.37;;;3.70;91.30;;;;;;961392;146;27283;-79
2023/01/26 05:25:10;;;;;;;7.40;6.60;;;3.70;91.20;;;;;;961370;148;27388;-79
2023/01/26 05:27:36;;;;;;;7.90;7.10;;;3.70;91.30;;;;;;961524;148;27400;-80
2023/01/26 05:30:03;;;;;;;9.03;7.07;;;3.70;91.40;;;;;;960867;148;27267;-80
2023/01/26 05:32:29;;;;;;;8.20;6.20;;;3.60;91.50;;;;;;961276;148;27191;-79
2023/01/26 05:34:56;;;;;;;8.93;7.00;;;3.60;91.70;;;;;;961467;147;27357;-79
2023/01/26 05:37:26;;;;;;;8.23;6.97;;;3.60;91.80;;;;;;961734;146;27299;-79
2023/01/26 05:39:52;;;;;;;8.17;6.67;;;3.60;91.90;;;;;;959730;148;27272;-79
2023/01/26 05:42:19;;;;;;;8.13;7.33;;;3.60;91.80;;;;;;960305;146;27325;-79
2023/01/26 05:44:45;;;;;;;7.60;6.80;;;3.60;91.80;;;;;;960272;148;27313;-79
2023/01/26 05:47:12;;;;;;;8.07;6.27;;;3.60;91.80;;;;;;961538;148;27732;-80
2023/01/26 05:49:41;;;;;;;8.80;6.73;;;3.60;91.80;;;;;;960761;146;27330;-79
2023/01/26 05:52:05;;;;;;;9.00;7.03;;;3.60;91.70;;;;;;961274;148;27351;-80
2023/01/26 05:54:32;;;;;;;8.53;7.13;;;3.60;91.70;;;;;;960796;148;27290;-79
2023/01/26 05:56:58;;;;;;;6.87;6.00;;;3.60;91.60;;;;;;961207;148;27390;-79
2023/01/26 05:59:25;;;;;;;7.53;6.70;;;3.60;91.50;;;;;;960407;146;27303;-80
2023/01/26 06:01:51;;;;;;;8.03;6.77;;;3.60;91.40;;;;;;960718;148;27330;-79
2023/01/26 06:04:18;;;;;;;7.73;6.70;;;3.60;91.50;;;;;;961077;146;27252;-80
2023/01/26 06:06:45;;;;;;;7.63;6.77;;;3.60;91.50;;;;;;962053;146;27303;-79
2023/01/26 06:09:11;;;;;;;9.10;8.03;;;3.60;91.60;;;;;;961389;146;27336;-79
2023/01/26 06:11:38;;;;;;;6.73;6.03;;;3.60;91.60;;;;;;949764;147;27331;-79
2023/01/26 06:14:04;;;;;;;7.67;6.50;;;3.60;91.60;;;;;;948074;147;27341;-79
2023/01/26 06:16:31;;;;;;;6.67;5.77;;;3.60;91.60;;;;;;945558;147;27403;-79
2023/01/26 06:18:57;;;;;;;7.03;6.17;;;3.60;91.60;;;;;;953072;147;27336;-79
2023/01/26 06:21:24;;;;;;;5.90;5.33;;;3.60;91.50;;;;;;950705;147;27412;-80
2023/01/26 06:23:51;;;;;;;7.67;5.87;;;3.50;91.50;;;;;;964093;146;27918;-80
2023/01/26 06:26:17;;;;;;;6.73;5.53;;;3.50;91.40;;;;;;963852;146;27272;-79
2023/01/26 06:28:44;;;;;;;5.77;5.23;;;3.50;91.40;;;;;;965248;146;28546;-79
2023/01/26 06:31:10;;;;;;;6.10;5.50;;;3.50;91.30;;;;;;963790;146;27347;-79
2023/01/26 06:33:37;;;;;;;5.40;4.90;;;3.50;91.30;;;;;;964659;146;27335;-79
2023/01/26 06:36:04;;;;;;;4.97;4.47;;;3.50;91.30;;;;;;963987;146;27346;-79
2023/01/26 06:38:31;;;;;;;5.97;4.90;;;3.50;91.40;;;;;;964051;146;27348;-80
2023/01/26 06:41:01;;;;;;;5.20;4.70;;;3.50;91.50;;;;;;963247;146;27294;-79
2023/01/26 06:43:26;;;;;;;6.23;5.37;;;3.50;91.50;;;;;;963842;146;27346;-80
2023/01/26 06:45:53;;;;;;;5.83;5.23;;;3.50;91.60;;;;;;963235;146;28274;-79
2023/01/26 06:48:19;;;;;;;6.10;5.47;;;3.50;92.00;;;;;;964462;146;27319;-79
2023/01/26 06:50:46;;;;;;;5.90;5.30;;;3.50;91.70;;;;;;949659;147;27247;-79
2023/01/26 06:53:33;;;;;;;5.70;5.00;;;3.50;91.80;;;;;;967447;145;27683;-79
2023/01/26 06:56:00;;;;;;;5.13;4.63;;;3.50;91.60;;;;;;950495;150;27439;-79
2023/01/26 06:58:27;;;;;;;5.33;4.83;;;3.60;91.60;;;;;;966947;145;27303;-79
2023/01/26 07:00:53;;;;;;;5.50;5.00;;;3.60;91.50;;;;;;967138;145;27278;-79
2023/01/26 07:03:20;;;;;;;5.23;4.73;;;3.60;91.40;;;;;;966612;148;27377;-79
2023/01/26 07:05:46;;;;;;;4.93;4.27;;;3.60;91.30;;;;;;966518;148;27410;-80
2023/01/26 07:08:13;;;;;;;4.37;3.97;;;3.60;90.90;;;;;;948961;150;27274;-79
2023/01/26 07:10:40;;;;;;;4.17;3.77;;;3.60;91.00;;;;;;967143;148;27265;-81
2023/01/26 07:13:06;;;;;;;4.40;4.00;;;3.60;90.90;;;;;;967895;148;27381;-80
2023/01/26 07:15:33;;;;;;;4.27;3.87;;;3.60;90.80;;;;;;967371;148;27373;-81
2023/01/26 07:17:59;;;;;;;4.37;3.97;;;3.60;90.60;;;;;;948835;148;28615;-81
2023/01/26 07:20:26;;;;;;;4.60;4.20;;;3.60;90.60;;;;;;964641;148;27311;-79
2023/01/26 07:22:52;;;;;;;4.27;3.90;;;3.60;90.60;;;;;;964860;148;27447;-81
2023/01/26 07:25:19;;;;;;;5.30;4.70;;;3.50;90.50;;;;;;965211;148;27277;-80
2023/01/26 07:27:46;;;;;;;6.10;4.73;;;3.50;90.50;;;;;;964603;148;27342;-81
2023/01/26 07:30:15;;;;;;;4.60;4.13;;;3.50;90.50;;;;;;968949;145;27299;-79
2023/01/26 07:32:41;;;;;;;4.27;3.40;;;3.50;90.40;;;;;;968305;142;27384;-79
2023/01/26 07:35:08;;;;;;;3.93;3.53;;;3.50;90.40;;;;;;968584;145;27335;-79
2023/01/26 07:37:34;;;;;;;4.17;3.77;;;3.50;90.40;;;;;;968881;145;27410;-80
2023/01/26 07:40:02;;;;;;;3.67;3.37;;;3.50;90.40;;;;;;951535;148;27396;-81
2023/01/26 07:42:29;;;;;;;3.70;3.40;;;3.50;90.40;;;;;;966383;146;27807;-80
2023/01/26 07:44:54;;;;;;;3.20;2.90;;;3.50;90.40;;;;;;947639;148;27426;-80
2023/01/26 07:47:21;;;;;;;4.60;4.20;;;3.60;90.30;;;;;;967008;146;27321;-81
2023/01/26 07:49:47;;;;;;;5.43;4.73;;;3.60;90.30;;;;;;966592;145;27412;-81
2023/01/26 07:52:14;;;;;;;6.80;5.10;;;3.60;90.30;;;;;;966404;145;27245;-80
2023/01/26 07:54:41;;;;;;;9.07;6.43;;;3.60;90.30;;;;;;955091;150;27295;-80
2023/01/26 07:57:07;;;;;;;6.97;6.27;;;3.60;90.30;;;;;;955521;147;27330;-79
2023/01/26 07:59:34;;;;;;;6.57;5.87;;;3.60;90.30;;;;;;954839;150;27416;-81
2023/01/26 08:02:00;;;;;;;9.30;6.07;;;3.60;90.60;;;;;;955018;148;27268;-80
2023/01/26 08:04:27;;;;;;;6.60;5.10;;;3.60;90.40;;;;;;955095;147;27284;-80
2023/01/26 08:06:53;;;;;;;6.33;5.07;;;3.60;90.30;;;;;;955772;150;27253;-80
2023/01/26 08:09:20;;;;;;;6.00;5.40;;;3.60;90.30;;;;;;954099;147;27458;-80
2023/01/26 08:11:47;;;;;;;7.33;5.50;;;3.60;90.30;;;;;;955744;150;27323;-80
2023/01/26 08:14:13;;;;;;;4.93;4.17;;;3.60;90.40;;;;;;954927;147;27284;-80
2023/01/26 08:16:40;;;;;;;7.23;5.43;;;3.60;90.40;;;;;;954700;147;27283;-80
2023/01/26 08:19:06;;;;;;;5.97;5.37;;;3.60;90.40;;;;;;955183;147;27299;-79
2023/01/26 08:21:33;;;;;;;6.03;5.20;;;3.60;90.30;;;;;;954918;150;27429;-79
2023/01/26 08:24:02;;;;;;;6.30;4.73;;;3.70;90.60;;;;;;955149;150;27359;-81
2023/01/26 08:26:26;;;;;;;5.57;5.07;;;3.70;90.30;;;;;;953921;150;27302;-81
2023/01/26 08:28:53;;;;;;;6.57;4.50;;;3.70;90.20;;;;;;955432;147;27268;-80
2023/01/26 08:31:19;;;;;;;4.70;4.23;;;3.70;90.20;;;;;;955278;147;27455;-80
2023/01/26 08:33:46;;;;;;;4.03;3.70;;;3.70;90.10;;;;;;954450;150;27409;-81
2023/01/26 08:36:13;;;;;;;4.73;4.23;;;3.70;90.00;;;;;;955185;150;27780;-81
2023/01/26 08:38:39;;;;;;;4.50;4.10;;;3.70;89.80;;;;;;955196;150;27228;-80
2023/01/26 08:41:06;;;;;;;5.43;4.53;;;3.70;89.60;;;;;;955847;148;27388;-81
2023/01/26 08:43:32;;;;;;;7.13;4.90;;;3.70;89.50;;;;;;958016;149;27319;-81
2023/01/26 08:45:59;;;;;;;4.80;4.40;;;3.70;89.60;;;;;;958788;149;28030;-80
2023/01/26 08:48:25;;;;;;;4.77;4.30;;;3.70;89.50;;;;;;945242;151;27344;-80
2023/01/26 08:50:55;;;;;;;4.33;3.93;;;3.70;89.00;;;;;;964932;148;27315;-79
2023/01/26 08:53:21;;;;;;;5.20;4.00;;;3.70;88.70;;;;;;963587;147;27390;-81
2023/01/26 08:55:48;;;;;;;4.50;4.10;;;3.70;88.50;;;;;;958499;149;27325;-81
2023/01/26 08:58:14;;;;;;;4.07;3.73;;;3.70;89.10;;;;;;959609;149;27381;-81
2023/01/26 09:00:41;;;;;;;5.30;4.17;;;3.70;88.20;;;;;;958548;149;27377;-79
2023/01/26 09:03:08;;;;;;;3.93;3.27;;;3.60;88.00;;;;;;958585;149;27449;-80
2023/01/26 09:05:34;;;;;;;4.97;3.97;;;3.70;88.00;;;;;;958808;149;27429;-80
2023/01/26 09:08:01;;;;;;;4.10;3.70;;;3.60;87.90;;;;;;959496;149;27832;-79
2023/01/26 09:10:27;;;;;;;5.17;4.17;;;3.60;87.80;;;;;;959414;149;27252;-83
2023/01/26 09:12:54;;;;;;;4.70;4.20;;;3.60;87.60;;;;;;957469;149;27367;-80
2023/01/26 09:15:21;;;;;;;4.03;3.63;;;3.60;87.60;;;;;;957962;149;27344;-79
2023/01/26 09:17:50;;;;;;;4.57;4.17;;;3.60;87.80;;;;;;958711;149;27248;-79
2023/01/26 09:20:17;;;;;;;5.67;4.03;;;3.60;87.90;;;;;;957604;149;27315;-80
2023/01/26 09:22:43;;;;;;;4.13;3.83;;;3.60;87.80;;;;;;958246;149;27972;-79
2023/01/26 09:25:10;;;;;;;5.17;4.67;;;3.60;87.80;;;;;;958405;149;27342;-80
2023/01/26 09:27:37;;;;;;;6.10;4.13;;;3.70;87.80;;;;;;959967;149;27431;-80
2023/01/26 09:30:03;;;;;;;5.37;4.70;;;3.70;87.80;;;;;;958688;149;27324;-80
2023/01/26 09:32:30;;;;;;;4.70;4.23;;;3.70;87.60;;;;;;959616;149;27361;-80
2023/01/26 09:34:56;;;;;;;5.83;4.87;;;3.70;87.60;;;;;;959213;149;28821;-79
2023/01/26 09:37:23;;;;;;;5.77;5.10;;;3.70;87.70;;;;;;959967;149;27352;-80
2023/01/26 09:39:49;;;;;;;6.27;5.33;;;3.70;87.80;;;;;;959547;149;27845;-80
2023/01/26 09:42:34;;;;;;;7.27;6.07;;;3.70;87.90;;;;;;959550;149;27325;-80
2023/01/26 09:45:13;;;;;;;6.00;5.40;;;3.80;88.10;;;;;;957897;149;27432;-80
2023/01/26 09:48:13;;;;;;;6.23;5.63;;;3.80;88.10;;;;;;958499;149;27288;-80
2023/01/26 09:50:42;;;;;;;6.70;5.97;;;3.80;87.80;;;;;;959164;149;27352;-81
2023/01/26 09:53:14;;;;;;;7.03;6.03;;;3.80;87.60;;;;;;959169;149;27309;-81
2023/01/26 09:55:41;;;;;;;6.23;5.63;;;3.80;87.60;;;;;;957561;148;27364;-80
2023/01/26 09:58:22;;;;;;;6.90;6.20;;;3.80;87.60;;;;;;960155;149;27344;-80
2023/01/26 10:00:49;;;;;;;7.23;6.50;;;3.80;87.60;;;;;;957214;149;27431;-80
2023/01/26 10:03:34;;;;;;;8.20;7.07;;;3.80;87.70;;;;;;957780;149;27324;-80
2023/01/26 10:06:20;;;;;;;7.30;6.07;;;3.90;87.60;;;;;;958790;149;27442;-80
2023/01/26 10:08:45;;;;;;;8.03;6.63;;;3.90;87.60;;;;;;958358;149;27329;-78
2023/01/26 10:11:14;;;;;;;8.60;7.30;;;3.90;87.50;;;;;;957752;149;27360;-79
2023/01/26 10:13:41;;;;;;;6.97;6.27;;;3.90;87.20;;;;;;940214;149;27407;-80
2023/01/26 10:16:07;;;;;;;7.57;6.77;;;3.90;87.10;;;;;;957718;149;27416;-79
2023/01/26 10:18:40;;;;;;;7.40;6.60;;;3.90;87.10;;;;;;959103;149;27324;-79
2023/01/26 10:21:06;;;;;;;7.47;5.90;;;3.90;86.90;;;;;;955007;149;27383;-79
2023/01/26 10:23:33;;;;;;;8.13;6.80;;;3.80;86.80;;;;;;958271;149;27995;-80
2023/01/26 10:26:09;;;;;;;8.70;7.23;;;3.80;86.90;;;;;;958630;149;27306;-79
2023/01/26 10:28:35;;;;;;;8.30;6.67;;;3.80;87.00;;;;;;958561;149;28311;-80
2023/01/26 10:31:05;;;;;;;8.20;6.73;;;3.80;87.00;;;;;;957764;149;27339;-80
2023/01/26 10:33:34;;;;;;;9.17;6.97;;;3.80;87.10;;;;;;957836;149;29215;-81
2023/01/26 10:36:00;;;;;;;8.70;7.73;;;3.80;87.30;;;;;;958277;149;27365;-81
2023/01/26 10:38:33;;;;;;;8.50;7.07;;;3.90;87.60;;;;;;958902;149;27321;-80
2023/01/26 10:41:02;;;;;;;8.73;7.73;;;3.90;87.60;;;;;;958528;149;27364;-80
2023/01/26 10:43:28;;;;;;;10.23;8.67;;;3.90;87.60;;;;;;957664;149;27803;-81
2023/01/26 10:45:55;;;;;;;9.47;7.97;;;4.00;87.80;;;;;;956634;149;27323;-81
2023/01/26 10:48:25;;;;;;;10.10;7.97;;;4.00;87.60;;;;;;957523;149;27289;-80
2023/01/26 10:50:48;;;;;;;11.43;7.27;;;4.00;87.50;;;;;;956660;149;27421;-81
2023/01/26 10:53:18;;;;;;;8.90;7.97;;;4.00;87.40;;;;;;943742;152;27268;-81
2023/01/26 10:55:44;;;;;;;8.10;6.53;;;4.10;87.30;;;;;;940422;149;27387;-81
2023/01/26 10:58:44;;;;;;;9.27;7.47;;;4.10;87.30;;;;;;944665;148;27421;-80
2023/01/26 11:01:17;;;;;;;10.23;7.20;;;4.10;87.30;;;;;;937118;149;27353;-80
2023/01/26 11:03:40;;;;;;;9.03;7.40;;;4.10;87.10;;;;;;935142;151;27539;-80
2023/01/26 11:06:12;;;;;;;10.00;7.67;;;4.10;86.90;;;;;;933124;151;27349;-81
2023/01/26 11:08:39;;;;;;;8.67;6.80;;;4.10;86.50;;;;;;946299;151;27265;-80
2023/01/26 11:11:10;;;;;;;9.80;7.00;;;4.10;86.40;;;;;;963090;148;27306;-80
2023/01/26 11:13:35;;;;;;;8.20;7.27;;;4.10;86.40;;;;;;944366;151;27355;-80
2023/01/26 11:16:17;;;;;;;7.87;6.93;;;4.10;86.30;;;;;;942176;151;27826;-81
2023/01/26 11:18:52;;;;;;;6.93;6.20;;;4.10;86.30;;;;;;945180;151;27300;-80
2023/01/26 11:21:22;;;;;;;7.20;6.50;;;4.10;86.20;;;;;;945982;151;27452;-80
2023/01/26 11:23:54;;;;;;;7.63;6.73;;;4.10;86.20;;;;;;946287;151;27693;-80
2023/01/26 11:26:32;;;;;;;8.50;6.80;;;4.10;86.20;;;;;;945990;151;27324;-80
2023/01/26 11:29:17;;;;;;;7.63;6.80;;;4.10;86.20;;;;;;947293;148;27375;-79
2023/01/26 11:31:52;;;;;;;7.70;6.43;;;4.10;86.20;;;;;;942857;151;27417;-80
2023/01/26 11:34:37;;;;;;;7.07;6.37;;;4.10;86.20;;;;;;944810;151;27298;-80
2023/01/26 11:37:09;;;;;;;7.37;6.47;;;4.10;86.20;;;;;;946265;151;27349;-80
2023/01/26 11:39:42;;;;;;;9.77;7.70;;;4.10;86.30;;;;;;945175;151;27307;-80
2023/01/26 11:42:26;;;;;;;9.63;8.23;;;4.10;86.20;;;;;;944215;151;27908;-80
2023/01/26 11:45:06;;;;;;;19.03;14.37;;;4.10;86.00;;;;;;946322;151;27402;-80
2023/01/26 11:47:46;;;;;;;10.17;8.27;;;4.10;86.20;;;;;;944402;151;27285;-80
2023/01/26 11:50:21;;;;;;;9.00;7.67;;;4.10;86.40;;;;;;938560;151;27333;-81
2023/01/26 11:52:54;;;;;;;8.00;7.20;;;4.20;86.50;;;;;;944898;151;27399;-80
2023/01/26 11:55:23;;;;;;;8.97;7.27;;;4.20;86.60;;;;;;945122;151;27389;-80
2023/01/26 11:58:08;;;;;;;9.13;7.63;;;4.20;86.70;;;;;;954248;146;27444;-80
2023/01/26 12:00:41;;;;;;;11.37;7.03;;;4.20;86.50;;;;;;947898;147;27727;-79
2023/01/26 12:03:13;;;;;;;7.77;6.73;;;4.30;86.50;;;;;;946182;147;27439;-80
2023/01/26 12:05:40;;;;;;;8.13;7.13;;;4.40;86.30;;;;;;961537;146;27310;-80
2023/01/26 12:08:21;;;;;;;9.70;7.43;;;4.40;86.00;;;;;;955567;147;27310;-79
2023/01/26 12:10:48;;;;;;;9.00;7.23;;;4.40;86.50;;;;;;938604;147;27420;-80
2023/01/26 12:13:36;;;;;;;8.63;7.33;;;4.40;85.40;;;;;;960232;146;28316;-80
2023/01/26 12:16:09;;;;;;;9.50;7.07;;;4.40;85.30;;;;;;965070;146;27363;-80
2023/01/26 12:18:35;;;;;;;11.37;6.93;;;4.40;85.10;;;;;;961405;146;27448;-80
2023/01/26 12:21:05;;;;;;;7.87;6.53;;;4.40;85.10;;;;;;962476;146;27465;-79
2023/01/26 12:23:35;;;;;;;10.50;7.67;;;4.40;85.10;;;;;;963455;146;27383;-79
2023/01/26 12:26:13;;;;;;;10.60;8.43;;;4.40;84.90;;;;;;963028;146;27320;-80
2023/01/26 12:28:45;;;;;;;7.87;6.97;;;4.40;84.70;;;;;;961765;146;27391;-80
2023/01/26 12:31:29;;;;;;;8.97;7.30;;;4.40;85.40;;;;;;963228;146;27292;-80
2023/01/26 12:33:56;;;;;;;9.63;6.83;;;4.40;84.30;;;;;;962354;146;27334;-80
2023/01/26 12:36:50;;;;;;;8.30;7.20;;;4.40;84.30;;;;;;962617;146;28552;-80
2023/01/26 12:39:41;;;;;;;9.13;7.77;;;4.40;84.50;;;;;;962870;146;27302;-80
2023/01/26 12:42:11;;;;;;;10.30;7.33;;;4.40;84.50;;;;;;964291;146;27419;-80
2023/01/26 12:44:43;;;;;;;8.33;6.37;;;4.30;84.30;;;;;;963557;146;27278;-80
2023/01/26 12:47:13;;;;;;;10.30;7.10;;;4.40;84.30;;;;;;963532;146;27304;-79
2023/01/26 12:49:42;;;;;;;9.37;7.37;;;4.40;84.10;;;;;;962975;146;27339;-80
2023/01/26 12:52:15;;;;;;;8.83;7.23;;;4.30;84.00;;;;;;962887;146;27276;-80
2023/01/26 12:54:41;;;;;;;8.50;7.50;;;4.40;84.00;;;;;;962876;146;27322;-80
2023/01/26 12:57:08;;;;;;;9.13;7.60;;;4.30;84.00;;;;;;964001;146;27294;-79
2023/01/26 12:59:34;;;;;;;8.10;6.87;;;4.30;84.00;;;;;;964714;146;27326;-80
2023/01/26 13:02:01;;;;;;;9.60;7.73;;;4.30;84.00;;;;;;963986;145;27864;-80
2023/01/26 13:04:27;;;;;;;9.70;7.40;;;4.40;83.50;;;;;;959327;145;27358;-80
2023/01/26 13:07:00;;;;;;;10.47;7.50;;;4.40;83.90;;;;;;965014;146;27392;-79
2023/01/26 13:09:27;;;;;;;9.93;8.07;;;4.30;83.70;;;;;;965573;145;27439;-80
2023/01/26 13:11:57;;;;;;;9.20;8.00;;;4.40;83.70;;;;;;964373;145;27268;-80
2023/01/26 13:14:25;;;;;;;9.17;7.67;;;4.40;83.50;;;;;;963783;145;27411;-80
2023/01/26 13:16:52;;;;;;;9.27;7.40;;;4.40;83.40;;;;;;951115;145;27438;-79
2023/01/26 13:19:43;;;;;;;8.03;7.23;;;4.40;83.40;;;;;;964394;145;27416;-81
2023/01/26 13:22:18;;;;;;;8.87;6.80;;;4.40;83.40;;;;;;964752;145;27376;-80
2023/01/26 13:24:46;;;;;;;7.47;6.57;;;4.30;83.50;;;;;;964318;145;27412;-80
2023/01/26 13:27:30;;;;;;;8.07;6.73;;;4.40;83.50;;;;;;964543;145;27325;-79
2023/01/26 13:29:56;;;;;;;7.77;6.70;;;4.30;83.60;;;;;;957875;145;27440;-80
2023/01/26 13:32:23;;;;;;;8.67;6.87;;;4.30;83.60;;;;;;965478;145;27334;-80
2023/01/26 13:34:58;;;;;;;8.17;7.00;;;4.40;83.50;;;;;;964712;145;27331;-80
2023/01/26 13:37:43;;;;;;;8.90;6.90;;;4.40;83.50;;;;;;965189;145;27454;-80
2023/01/26 13:40:18;;;;;;;8.43;6.93;;;4.40;83.30;;;;;;962518;145;27349;-79
2023/01/26 13:42:50;;;;;;;8.60;7.10;;;4.40;83.20;;;;;;965224;145;27455;-80
2023/01/26 13:45:17;;;;;;;9.33;6.83;;;4.40;83.20;;;;;;963529;145;27240;-80